sensor_id;sensor_type;location;lat;lon;timestamp;temperature;humidity
6824;DHT22;58633;49.470;11.004;2023-06-04T00:00:12;18.30;35.30
6824;DHT22;58633;49.470;11.004;2023-06-04T00:05:03;18.20;35.30
6824;DHT22;58633;49.470;11.004;2023-06-04T00:17:13;17.80;35.90
6824;DHT22;58633;49.470;11.004;2023-06-04T00:19:39;17.80;35.80
6824;DHT22;58633;49.470;11.004;2023-06-04T00:22:06;17.70;36.20
6824;DHT22;58633;49.470;11.004;2023-06-04T00:31:50;17.70;37.20
6824;DHT22;58633;49.470;11.004;2023-06-04T00:34:17;18.00;37.60
6824;DHT22;58633;49.470;11.004;2023-06-04T00:36:43;17.80;37.50
6824;DHT22;58633;49.470;11.004;2023-06-04T00:41:35;17.40;37.20
6824;DHT22;58633;49.470;11.004;2023-06-04T00:44:01;16.60;36.50
6824;DHT22;58633;49.470;11.004;2023-06-04T00:46:28;17.00;36.90
6824;DHT22;58633;49.470;11.004;2023-06-04T00:48:54;17.20;37.40
6824;DHT22;58633;49.470;11.004;2023-06-04T00:51:20;16.40;37.00
6824;DHT22;58633;49.470;11.004;2023-06-04T00:58:41;17.10;37.90
6824;DHT22;58633;49.470;11.004;2023-06-04T01:03:58;16.70;37.80
6824;DHT22;58633;49.470;11.004;2023-06-04T01:06:35;16.20;37.80
6824;DHT22;58633;49.470;11.004;2023-06-04T01:09:01;17.20;38.90
6824;DHT22;58633;49.470;11.004;2023-06-04T01:11:35;16.20;38.20
6824;DHT22;58633;49.470;11.004;2023-06-04T01:14:02;16.80;39.10
6824;DHT22;58633;49.470;11.004;2023-06-04T01:16:32;16.00;38.70
6824;DHT22;58633;49.470;11.004;2023-06-04T01:21:30;16.90;39.70
6824;DHT22;58633;49.470;11.004;2023-06-04T01:24:00;16.00;38.80
6824;DHT22;58633;49.470;11.004;2023-06-04T01:26:29;16.20;38.60
6824;DHT22;58633;49.470;11.004;2023-06-04T01:28:56;15.50;37.90
6824;DHT22;58633;49.470;11.004;2023-06-04T01:31:23;16.20;38.20
6824;DHT22;58633;49.470;11.004;2023-06-04T01:33:56;16.20;38.20
6824;DHT22;58633;49.470;11.004;2023-06-04T01:48:33;15.70;38.20
6824;DHT22;58633;49.470;11.004;2023-06-04T01:51:00;15.80;38.60
6824;DHT22;58633;49.470;11.004;2023-06-04T01:55:52;15.40;39.10
6824;DHT22;58633;49.470;11.004;2023-06-04T01:58:18;15.60;39.20
6824;DHT22;58633;49.470;11.004;2023-06-04T02:00:49;15.80;39.40
6824;DHT22;58633;49.470;11.004;2023-06-04T02:03:15;16.60;40.30
6824;DHT22;58633;49.470;11.004;2023-06-04T02:05:40;14.50;38.60
6824;DHT22;58633;49.470;11.004;2023-06-04T02:08:06;15.70;39.70
6824;DHT22;58633;49.470;11.004;2023-06-04T02:10:32;16.20;40.30
6824;DHT22;58633;49.470;11.004;2023-06-04T02:13:00;15.50;40.00
6824;DHT22;58633;49.470;11.004;2023-06-04T02:15:28;16.30;41.10
6824;DHT22;58633;49.470;11.004;2023-06-04T02:17:59;15.40;40.40
6824;DHT22;58633;49.470;11.004;2023-06-04T02:30:22;15.30;41.30
6824;DHT22;58633;49.470;11.004;2023-06-04T02:32:47;14.90;40.90
6824;DHT22;58633;49.470;11.004;2023-06-04T02:35:16;15.40;41.40
6824;DHT22;58633;49.470;11.004;2023-06-04T02:37:43;14.70;40.90
6824;DHT22;58633;49.470;11.004;2023-06-04T02:42:35;16.80;43.00
6824;DHT22;58633;49.470;11.004;2023-06-04T02:45:01;14.90;41.60
6824;DHT22;58633;49.470;11.004;2023-06-04T02:47:27;15.30;42.00
6824;DHT22;58633;49.470;11.004;2023-06-04T02:49:52;14.70;41.70
6824;DHT22;58633;49.470;11.004;2023-06-04T02:52:18;15.70;43.00
6824;DHT22;58633;49.470;11.004;2023-06-04T02:54:43;15.00;42.60
6824;DHT22;58633;49.470;11.004;2023-06-04T02:57:09;14.70;42.20
6824;DHT22;58633;49.470;11.004;2023-06-04T02:59:34;14.60;42.60
6824;DHT22;58633;49.470;11.004;2023-06-04T03:02:02;15.00;43.00
6824;DHT22;58633;49.470;11.004;2023-06-04T03:04:27;13.80;42.10
6824;DHT22;58633;49.470;11.004;2023-06-04T03:11:51;14.00;42.80
6824;DHT22;58633;49.470;11.004;2023-06-04T03:14:17;14.40;43.00
6824;DHT22;58633;49.470;11.004;2023-06-04T03:16:43;14.80;43.30
6824;DHT22;58633;49.470;11.004;2023-06-04T03:19:10;14.50;43.20
6824;DHT22;58633;49.470;11.004;2023-06-04T03:21:37;14.10;43.00
6824;DHT22;58633;49.470;11.004;2023-06-04T03:24:05;14.70;43.60
6824;DHT22;58633;49.470;11.004;2023-06-04T03:28:57;14.60;43.60
6824;DHT22;58633;49.470;11.004;2023-06-04T03:31:22;13.80;42.90
6824;DHT22;58633;49.470;11.004;2023-06-04T03:36:14;14.30;43.60
6824;DHT22;58633;49.470;11.004;2023-06-04T03:38:41;14.50;43.90
6824;DHT22;58633;49.470;11.004;2023-06-04T03:41:07;13.60;43.10
6824;DHT22;58633;49.470;11.004;2023-06-04T03:43:32;14.80;44.20
6824;DHT22;58633;49.470;11.004;2023-06-04T03:48:23;13.70;43.60
6824;DHT22;58633;49.470;11.004;2023-06-04T03:58:08;14.00;44.20
6824;DHT22;58633;49.470;11.004;2023-06-04T04:05:28;14.50;44.90
6824;DHT22;58633;49.470;11.004;2023-06-04T04:10:20;14.80;45.20
6824;DHT22;58633;49.470;11.004;2023-06-04T04:12:46;15.40;45.90
6824;DHT22;58633;49.470;11.004;2023-06-04T04:20:03;14.70;45.40
6824;DHT22;58633;49.470;11.004;2023-06-04T04:22:30;13.20;44.10
6824;DHT22;58633;49.470;11.004;2023-06-04T04:24:56;14.40;45.00
6824;DHT22;58633;49.470;11.004;2023-06-04T04:27:22;14.20;44.90
6824;DHT22;58633;49.470;11.004;2023-06-04T04:29:48;14.20;44.90
6824;DHT22;58633;49.470;11.004;2023-06-04T04:32:13;13.70;44.60
6824;DHT22;58633;49.470;11.004;2023-06-04T04:34:50;14.20;44.90
6824;DHT22;58633;49.470;11.004;2023-06-04T04:37:20;13.40;44.40
6824;DHT22;58633;49.470;11.004;2023-06-04T04:39:49;14.20;45.20
6824;DHT22;58633;49.470;11.004;2023-06-04T04:42:19;13.70;44.80
6824;DHT22;58633;49.470;11.004;2023-06-04T04:47:14;14.00;45.20
6824;DHT22;58633;49.470;11.004;2023-06-04T04:49:40;14.10;45.20
6824;DHT22;58633;49.470;11.004;2023-06-04T04:54:32;13.90;45.00
6824;DHT22;58633;49.470;11.004;2023-06-04T04:56:57;14.20;45.10
6824;DHT22;58633;49.470;11.004;2023-06-04T04:59:23;14.30;45.20
6824;DHT22;58633;49.470;11.004;2023-06-04T05:01:48;14.40;45.20
6824;DHT22;58633;49.470;11.004;2023-06-04T05:04:14;14.70;45.40
6824;DHT22;58633;49.470;11.004;2023-06-04T05:09:05;14.90;45.60
6824;DHT22;58633;49.470;11.004;2023-06-04T05:11:32;13.80;44.70
6824;DHT22;58633;49.470;11.004;2023-06-04T05:18:50;14.00;44.80
6824;DHT22;58633;49.470;11.004;2023-06-04T05:21:17;14.70;45.10
6824;DHT22;58633;49.470;11.004;2023-06-04T05:23:43;15.40;45.20
6824;DHT22;58633;49.470;11.004;2023-06-04T05:31:04;16.00;45.20
6824;DHT22;58633;49.470;11.004;2023-06-04T05:33:30;14.60;43.70
6824;DHT22;58633;49.470;11.004;2023-06-04T05:40:54;14.90;43.90
6824;DHT22;58633;49.470;11.004;2023-06-04T05:43:20;15.00;43.80
6824;DHT22;58633;49.470;11.004;2023-06-04T05:50:37;15.00;43.50
6824;DHT22;58633;49.470;11.004;2023-06-04T05:53:03;15.60;44.00
6824;DHT22;58633;49.470;11.004;2023-06-04T05:55:31;15.10;43.40
6824;DHT22;58633;49.470;11.004;2023-06-04T06:02:50;15.50;43.60
6824;DHT22;58633;49.470;11.004;2023-06-04T06:05:17;15.00;43.10
6824;DHT22;58633;49.470;11.004;2023-06-04T06:07:42;15.80;43.70
6824;DHT22;58633;49.470;11.004;2023-06-04T06:10:08;14.90;42.80
6824;DHT22;58633;49.470;11.004;2023-06-04T06:12:35;15.50;43.30
6824;DHT22;58633;49.470;11.004;2023-06-04T06:15:00;15.10;42.80
6824;DHT22;58633;49.470;11.004;2023-06-04T06:17:26;14.50;42.00
6824;DHT22;58633;49.470;11.004;2023-06-04T06:19:52;15.80;43.00
6824;DHT22;58633;49.470;11.004;2023-06-04T06:24:43;14.10;41.30
6824;DHT22;58633;49.470;11.004;2023-06-04T06:27:10;16.70;43.40
6824;DHT22;58633;49.470;11.004;2023-06-04T06:36:54;16.00;42.70
6824;DHT22;58633;49.470;11.004;2023-06-04T06:39:20;15.80;42.50
6824;DHT22;58633;49.470;11.004;2023-06-04T06:41:45;16.20;42.90
6824;DHT22;58633;49.470;11.004;2023-06-04T06:44:11;16.10;42.70
6824;DHT22;58633;49.470;11.004;2023-06-04T06:56:20;17.30;43.50
6824;DHT22;58633;49.470;11.004;2023-06-04T06:58:46;16.40;42.60
6824;DHT22;58633;49.470;11.004;2023-06-04T07:01:12;17.10;42.90
6824;DHT22;58633;49.470;11.004;2023-06-04T07:03:38;16.90;42.70
6824;DHT22;58633;49.470;11.004;2023-06-04T07:06:05;16.60;42.30
6824;DHT22;58633;49.470;11.004;2023-06-04T07:08:31;16.10;41.70
6824;DHT22;58633;49.470;11.004;2023-06-04T07:18:15;16.50;41.50
6824;DHT22;58633;49.470;11.004;2023-06-04T07:20:40;17.10;41.90
6824;DHT22;58633;49.470;11.004;2023-06-04T07:25:32;17.30;42.00
6824;DHT22;58633;49.470;11.004;2023-06-04T07:27:58;17.30;41.90
6824;DHT22;58633;49.470;11.004;2023-06-04T07:30:24;17.40;41.80
6824;DHT22;58633;49.470;11.004;2023-06-04T07:32:50;17.70;42.10
6824;DHT22;58633;49.470;11.004;2023-06-04T07:35:16;17.90;42.20
6824;DHT22;58633;49.470;11.004;2023-06-04T07:37:42;17.60;42.00
6824;DHT22;58633;49.470;11.004;2023-06-04T07:40:11;17.70;41.90
6824;DHT22;58633;49.470;11.004;2023-06-04T07:42:37;17.80;42.00
6824;DHT22;58633;49.470;11.004;2023-06-04T07:47:28;18.10;42.20
6824;DHT22;58633;49.470;11.004;2023-06-04T07:49:54;17.70;41.90
6824;DHT22;58633;49.470;11.004;2023-06-04T07:52:20;18.20;42.20
6824;DHT22;58633;49.470;11.004;2023-06-04T07:57:11;18.70;42.40
6824;DHT22;58633;49.470;11.004;2023-06-04T08:02:03;17.70;41.60
6824;DHT22;58633;49.470;11.004;2023-06-04T08:06:55;18.80;42.30
6824;DHT22;58633;49.470;11.004;2023-06-04T08:11:47;17.80;41.50
6824;DHT22;58633;49.470;11.004;2023-06-04T08:23:59;18.90;41.80
6824;DHT22;58633;49.470;11.004;2023-06-04T08:28:52;18.40;41.20
6824;DHT22;58633;49.470;11.004;2023-06-04T08:33:47;18.90;41.50
6824;DHT22;58633;49.470;11.004;2023-06-04T08:36:13;18.70;41.40
6824;DHT22;58633;49.470;11.004;2023-06-04T08:38:38;19.10;41.60
6824;DHT22;58633;49.470;11.004;2023-06-04T08:43:42;19.70;41.90
6824;DHT22;58633;49.470;11.004;2023-06-04T08:46:09;19.40;41.40
6824;DHT22;58633;49.470;11.004;2023-06-04T08:48:37;19.50;41.50
6824;DHT22;58633;49.470;11.004;2023-06-04T08:51:06;19.30;41.20
6824;DHT22;58633;49.470;11.004;2023-06-04T08:56:01;20.60;41.60
6824;DHT22;58633;49.470;11.004;2023-06-04T08:58:30;19.70;40.50
6824;DHT22;58633;49.470;11.004;2023-06-04T09:00:56;21.10;41.60
6824;DHT22;58633;49.470;11.004;2023-06-04T09:03:22;20.20;40.70
6824;DHT22;58633;49.470;11.004;2023-06-04T09:05:50;19.50;39.80
6824;DHT22;58633;49.470;11.004;2023-06-04T09:08:19;19.60;39.80
6824;DHT22;58633;49.470;11.004;2023-06-04T09:10:46;19.70;39.80
6824;DHT22;58633;49.470;11.004;2023-06-04T09:13:17;19.30;39.40
6824;DHT22;58633;49.470;11.004;2023-06-04T09:18:11;20.20;40.00
6824;DHT22;58633;49.470;11.004;2023-06-04T09:20:37;20.80;40.40
6824;DHT22;58633;49.470;11.004;2023-06-04T09:23:12;20.80;40.10
6824;DHT22;58633;49.470;11.004;2023-06-04T09:25:42;20.90;39.60
6824;DHT22;58633;49.470;11.004;2023-06-04T09:28:08;21.50;39.80
6824;DHT22;58633;49.470;11.004;2023-06-04T09:30:34;21.10;39.20
6824;DHT22;58633;49.470;11.004;2023-06-04T09:35:32;21.50;39.00
6824;DHT22;58633;49.470;11.004;2023-06-04T09:40:24;21.30;38.60
6824;DHT22;58633;49.470;11.004;2023-06-04T09:42:51;21.70;38.50
6824;DHT22;58633;49.470;11.004;2023-06-04T09:45:49;21.70;38.30
6824;DHT22;58633;49.470;11.004;2023-06-04T09:48:21;21.80;38.30
6824;DHT22;58633;49.470;11.004;2023-06-04T09:50:47;22.10;38.00
6824;DHT22;58633;49.470;11.004;2023-06-04T09:53:19;20.90;36.50
6824;DHT22;58633;49.470;11.004;2023-06-04T09:55:56;22.30;37.50
6824;DHT22;58633;49.470;11.004;2023-06-04T09:58:27;22.80;37.90
6824;DHT22;58633;49.470;11.004;2023-06-04T10:00:54;21.80;37.20
6824;DHT22;58633;49.470;11.004;2023-06-04T10:03:23;22.10;37.50
6824;DHT22;58633;49.470;11.004;2023-06-04T10:05:56;23.20;38.00
6824;DHT22;58633;49.470;11.004;2023-06-04T10:08:22;22.50;37.00
6824;DHT22;58633;49.470;11.004;2023-06-04T10:10:50;22.70;36.70
6824;DHT22;58633;49.470;11.004;2023-06-04T10:15:47;22.50;35.90
6824;DHT22;58633;49.470;11.004;2023-06-04T10:18:14;22.70;35.90
6824;DHT22;58633;49.470;11.004;2023-06-04T10:20:41;23.20;36.30
6824;DHT22;58633;49.470;11.004;2023-06-04T10:23:07;23.40;36.60
6824;DHT22;58633;49.470;11.004;2023-06-04T10:25:34;22.80;35.90
6824;DHT22;58633;49.470;11.004;2023-06-04T10:28:01;23.30;35.90
6824;DHT22;58633;49.470;11.004;2023-06-04T10:30:29;22.90;35.40
6824;DHT22;58633;49.470;11.004;2023-06-04T10:32:56;23.40;35.60
6824;DHT22;58633;49.470;11.004;2023-06-04T10:35:35;22.80;34.80
6824;DHT22;58633;49.470;11.004;2023-06-04T10:38:11;23.60;35.60
6824;DHT22;58633;49.470;11.004;2023-06-04T10:40:37;23.70;35.50
6824;DHT22;58633;49.470;11.004;2023-06-04T10:43:07;23.70;35.20
6824;DHT22;58633;49.470;11.004;2023-06-04T10:45:33;24.30;35.70
6824;DHT22;58633;49.470;11.004;2023-06-04T10:48:00;23.50;34.70
6824;DHT22;58633;49.470;11.004;2023-06-04T10:50:26;24.60;35.30
6824;DHT22;58633;49.470;11.004;2023-06-04T10:52:55;24.20;34.90
6824;DHT22;58633;49.470;11.004;2023-06-04T10:55:23;23.60;33.90
6824;DHT22;58633;49.470;11.004;2023-06-04T10:57:59;24.00;34.00
6824;DHT22;58633;49.470;11.004;2023-06-04T11:00:45;24.10;34.20
6824;DHT22;58633;49.470;11.004;2023-06-04T11:03:13;24.30;34.30
6824;DHT22;58633;49.470;11.004;2023-06-04T11:05:40;24.40;34.40
6824;DHT22;58633;49.470;11.004;2023-06-04T11:08:08;24.30;34.10
6824;DHT22;58633;49.470;11.004;2023-06-04T11:10:37;24.30;33.90
6824;DHT22;58633;49.470;11.004;2023-06-04T11:13:04;23.80;33.70
6824;DHT22;58633;49.470;11.004;2023-06-04T11:15:40;25.20;34.50
6824;DHT22;58633;49.470;11.004;2023-06-04T11:18:05;25.20;34.60
6824;DHT22;58633;49.470;11.004;2023-06-04T11:20:31;24.50;33.50
6824;DHT22;58633;49.470;11.004;2023-06-04T11:22:58;24.80;33.30
6824;DHT22;58633;49.470;11.004;2023-06-04T11:30:21;24.70;33.20
6824;DHT22;58633;49.470;11.004;2023-06-04T11:32:47;24.20;33.00
6824;DHT22;58633;49.470;11.004;2023-06-04T11:35:12;25.40;33.90
6824;DHT22;58633;49.470;11.004;2023-06-04T11:37:39;25.10;33.70
6824;DHT22;58633;49.470;11.004;2023-06-04T11:40:18;25.00;33.40
6824;DHT22;58633;49.470;11.004;2023-06-04T11:42:47;24.90;33.00
6824;DHT22;58633;49.470;11.004;2023-06-04T11:45:15;25.30;33.10
6824;DHT22;58633;49.470;11.004;2023-06-04T11:47:46;25.70;33.40
6824;DHT22;58633;49.470;11.004;2023-06-04T11:50:12;25.20;33.10
6824;DHT22;58633;49.470;11.004;2023-06-04T11:52:38;25.20;33.10
6824;DHT22;58633;49.470;11.004;2023-06-04T11:55:07;25.30;33.20
6824;DHT22;58633;49.470;11.004;2023-06-04T11:57:33;25.50;32.70
6824;DHT22;58633;49.470;11.004;2023-06-04T11:59:59;25.30;32.30
6824;DHT22;58633;49.470;11.004;2023-06-04T12:02:25;25.40;32.30
6824;DHT22;58633;49.470;11.004;2023-06-04T12:07:20;25.80;32.30
6824;DHT22;58633;49.470;11.004;2023-06-04T12:09:49;26.60;32.30
6824;DHT22;58633;49.470;11.004;2023-06-04T12:12:21;26.30;31.80
6824;DHT22;58633;49.470;11.004;2023-06-04T12:14:47;26.20;31.40
6824;DHT22;58633;49.470;11.004;2023-06-04T12:17:12;27.00;31.80
6824;DHT22;58633;49.470;11.004;2023-06-04T12:19:49;28.80;31.10
6824;DHT22;58633;49.470;11.004;2023-06-04T12:22:14;31.10;28.60
6824;DHT22;58633;49.470;11.004;2023-06-04T12:24:56;33.90;26.70
6824;DHT22;58633;49.470;11.004;2023-06-04T12:27:24;34.70;25.50
6824;DHT22;58633;49.470;11.004;2023-06-04T12:30:05;35.30;25.90
6824;DHT22;58633;49.470;11.004;2023-06-04T12:32:35;34.80;25.20
6824;DHT22;58633;49.470;11.004;2023-06-04T12:35:01;33.20;25.10
6824;DHT22;58633;49.470;11.004;2023-06-04T12:37:26;30.60;26.20
6824;DHT22;58633;49.470;11.004;2023-06-04T12:39:55;29.20;27.60
6824;DHT22;58633;49.470;11.004;2023-06-04T12:42:21;27.80;28.30
6824;DHT22;58633;49.470;11.004;2023-06-04T12:47:13;27.10;29.30
6824;DHT22;58633;49.470;11.004;2023-06-04T12:49:40;26.70;29.30
6824;DHT22;58633;49.470;11.004;2023-06-04T12:52:05;27.00;29.70
6824;DHT22;58633;49.470;11.004;2023-06-04T12:54:32;26.50;29.70
6824;DHT22;58633;49.470;11.004;2023-06-04T12:56:58;26.50;30.10
6824;DHT22;58633;49.470;11.004;2023-06-04T12:59:25;26.90;30.30
6824;DHT22;58633;49.470;11.004;2023-06-04T13:01:51;26.90;30.60
6824;DHT22;58633;49.470;11.004;2023-06-04T13:04:17;26.60;30.60
6824;DHT22;58633;49.470;11.004;2023-06-04T13:06:42;26.40;30.20
6824;DHT22;58633;49.470;11.004;2023-06-04T13:11:38;26.50;30.70
6824;DHT22;58633;49.470;11.004;2023-06-04T13:14:03;26.40;30.70
6824;DHT22;58633;49.470;11.004;2023-06-04T13:16:29;27.10;31.00
6824;DHT22;58633;49.470;11.004;2023-06-04T13:18:55;26.70;30.70
6824;DHT22;58633;49.470;11.004;2023-06-04T13:21:20;26.70;31.10
6824;DHT22;58633;49.470;11.004;2023-06-04T13:26:12;27.20;31.40
6824;DHT22;58633;49.470;11.004;2023-06-04T13:28:38;27.00;30.80
6824;DHT22;58633;49.470;11.004;2023-06-04T13:31:04;27.40;30.30
6824;DHT22;58633;49.470;11.004;2023-06-04T13:33:29;27.50;30.00
6824;DHT22;58633;49.470;11.004;2023-06-04T13:35:55;28.20;29.60
6824;DHT22;58633;49.470;11.004;2023-06-04T13:38:21;28.90;29.50
6824;DHT22;58633;49.470;11.004;2023-06-04T13:40:46;29.90;29.10
6824;DHT22;58633;49.470;11.004;2023-06-04T13:45:39;30.30;28.40
6824;DHT22;58633;49.470;11.004;2023-06-04T13:50:33;30.90;28.00
6824;DHT22;58633;49.470;11.004;2023-06-04T14:00:18;31.80;28.20
6824;DHT22;58633;49.470;11.004;2023-06-04T14:02:43;31.70;27.60
6824;DHT22;58633;49.470;11.004;2023-06-04T14:24:40;32.70;26.60
6824;DHT22;58633;49.470;11.004;2023-06-04T14:49:01;33.00;26.00
6824;DHT22;58633;49.470;11.004;2023-06-04T15:03:40;32.70;26.10
6824;DHT22;58633;49.470;11.004;2023-06-04T15:25:34;32.20;25.90
6824;DHT22;58633;49.470;11.004;2023-06-04T15:45:02;32.00;25.50
6824;DHT22;58633;49.470;11.004;2023-06-04T15:47:28;32.00;25.60
6824;DHT22;58633;49.470;11.004;2023-06-04T15:57:15;32.00;25.80
6824;DHT22;58633;49.470;11.004;2023-06-04T15:59:41;31.80;25.90
6824;DHT22;58633;49.470;11.004;2023-06-04T16:48:24;30.80;26.40
6824;DHT22;58633;49.470;11.004;2023-06-04T16:53:16;30.80;26.30
6824;DHT22;58633;49.470;11.004;2023-06-04T16:58:08;30.50;26.40
6824;DHT22;58633;49.470;11.004;2023-06-04T17:00:33;30.60;26.40
6824;DHT22;58633;49.470;11.004;2023-06-04T17:05:25;30.20;26.30
6824;DHT22;58633;49.470;11.004;2023-06-04T17:12:43;30.00;26.50
6824;DHT22;58633;49.470;11.004;2023-06-04T17:29:46;28.80;26.50
6824;DHT22;58633;49.470;11.004;2023-06-04T17:39:32;28.80;26.80
6824;DHT22;58633;49.470;11.004;2023-06-04T17:41:59;28.70;27.00
6824;DHT22;58633;49.470;11.004;2023-06-04T17:59:03;28.10;27.30
6824;DHT22;58633;49.470;11.004;2023-06-04T18:06:25;27.70;27.30
6824;DHT22;58633;49.470;11.004;2023-06-04T18:45:28;26.50;27.70
6824;DHT22;58633;49.470;11.004;2023-06-04T18:52:47;26.50;27.90
6824;DHT22;58633;49.470;11.004;2023-06-04T19:00:05;26.20;28.20
6824;DHT22;58633;49.470;11.004;2023-06-04T19:02:38;26.30;28.30
6824;DHT22;58633;49.470;11.004;2023-06-04T19:05:04;26.10;28.30
6824;DHT22;58633;49.470;11.004;2023-06-04T19:17:19;25.80;28.70
6824;DHT22;58633;49.470;11.004;2023-06-04T19:19:49;25.70;28.60
6824;DHT22;58633;49.470;11.004;2023-06-04T19:36:54;25.20;28.90
6824;DHT22;58633;49.470;11.004;2023-06-04T19:41:52;25.20;29.30
6824;DHT22;58633;49.470;11.004;2023-06-04T19:44:17;25.10;29.30
6824;DHT22;58633;49.470;11.004;2023-06-04T19:46:43;24.90;29.50
6824;DHT22;58633;49.470;11.004;2023-06-04T19:58:55;24.80;30.50
6824;DHT22;58633;49.470;11.004;2023-06-04T20:01:21;24.40;30.30
6824;DHT22;58633;49.470;11.004;2023-06-04T20:35:31;24.20;33.90
6824;DHT22;58633;49.470;11.004;2023-06-04T21:31:33;23.30;35.60
6824;DHT22;58633;49.470;11.004;2023-06-04T21:46:09;22.20;35.40
6824;DHT22;58633;49.470;11.004;2023-06-04T22:00:46;22.00;35.70
6824;DHT22;58633;49.470;11.004;2023-06-04T22:15:23;21.70;35.80
6824;DHT22;58633;49.470;11.004;2023-06-04T22:17:49;21.50;35.60
6824;DHT22;58633;49.470;11.004;2023-06-04T22:20:14;21.40;35.90
6824;DHT22;58633;49.470;11.004;2023-06-04T22:22:40;22.10;36.70
6824;DHT22;58633;49.470;11.004;2023-06-04T22:25:06;21.60;36.30
6824;DHT22;58633;49.470;11.004;2023-06-04T22:27:31;21.30;36.30
6824;DHT22;58633;49.470;11.004;2023-06-04T22:29:57;21.50;36.30
6824;DHT22;58633;49.470;11.004;2023-06-04T22:32:23;21.20;36.20
6824;DHT22;58633;49.470;11.004;2023-06-04T22:34:48;20.90;36.10
6824;DHT22;58633;49.470;11.004;2023-06-04T22:37:14;21.40;36.60
6824;DHT22;58633;49.470;11.004;2023-06-04T22:39:40;21.10;36.30
6824;DHT22;58633;49.470;11.004;2023-06-04T22:42:05;21.30;36.60
6824;DHT22;58633;49.470;11.004;2023-06-04T22:44:31;21.10;36.40
6824;DHT22;58633;49.470;11.004;2023-06-04T22:46:57;21.20;36.40
6824;DHT22;58633;49.470;11.004;2023-06-04T22:49:22;21.00;36.30
6824;DHT22;58633;49.470;11.004;2023-06-04T22:51:48;21.30;36.50
6824;DHT22;58633;49.470;11.004;2023-06-04T22:54:13;21.10;36.50
6824;DHT22;58633;49.470;11.004;2023-06-04T22:56:39;21.10;36.40
6824;DHT22;58633;49.470;11.004;2023-06-04T22:59:05;21.00;36.40
6824;DHT22;58633;49.470;11.004;2023-06-04T23:01:30;21.00;36.50
6824;DHT22;58633;49.470;11.004;2023-06-04T23:03:56;20.90;36.40
6824;DHT22;58633;49.470;11.004;2023-06-04T23:06:22;20.30;35.90
6824;DHT22;58633;49.470;11.004;2023-06-04T23:08:47;20.70;36.40
6824;DHT22;58633;49.470;11.004;2023-06-04T23:11:13;20.70;36.60
6824;DHT22;58633;49.470;11.004;2023-06-04T23:13:39;19.70;36.10
6824;DHT22;58633;49.470;11.004;2023-06-04T23:16:04;19.50;36.10
6824;DHT22;58633;49.470;11.004;2023-06-04T23:18:30;20.00;36.90
6824;DHT22;58633;49.470;11.004;2023-06-04T23:23:23;20.40;37.60
6824;DHT22;58633;49.470;11.004;2023-06-04T23:25:49;19.60;37.20
6824;DHT22;58633;49.470;11.004;2023-06-04T23:28:15;19.50;37.40
6824;DHT22;58633;49.470;11.004;2023-06-04T23:30:41;19.80;37.90
6824;DHT22;58633;49.470;11.004;2023-06-04T23:33:06;19.20;37.40
6824;DHT22;58633;49.470;11.004;2023-06-04T23:35:32;19.20;37.70
6824;DHT22;58633;49.470;11.004;2023-06-04T23:37:58;19.60;38.30
6824;DHT22;58633;49.470;11.004;2023-06-04T23:40:23;19.50;38.40
6824;DHT22;58633;49.470;11.004;2023-06-04T23:42:49;19.60;38.80
6824;DHT22;58633;49.470;11.004;2023-06-04T23:45:15;19.30;38.70
6824;DHT22;58633;49.470;11.004;2023-06-04T23:47:40;19.00;38.90
6824;DHT22;58633;49.470;11.004;2023-06-04T23:52:32;18.70;38.70
6824;DHT22;58633;49.470;11.004;2023-06-04T23:54:58;18.70;38.90
6824;DHT22;58633;49.470;11.004;2023-06-04T23:57:23;19.10;39.20
6824;DHT22;58633;49.470;11.004;2023-06-04T23:59:49;18.70;38.70
